createdAt,value
2018-03-30T00:00:07.843Z,22.23
2018-03-30T00:02:35.388Z,21.17
2018-03-30T00:05:02.929Z,24.27
2018-03-30T00:07:30.485Z,22.30
2018-03-30T00:09:58.033Z,20.07
2018-03-30T00:12:25.561Z,24.63
2018-03-30T00:14:53.105Z,20.40
2018-03-30T00:17:20.631Z,26.80
2018-03-30T00:19:48.173Z,27.20
2018-03-30T00:22:15.713Z,25.27
2018-03-30T00:24:43.258Z,26.47
2018-03-30T00:27:11.556Z,27.73
2018-03-30T00:29:39.096Z,27.70
2018-03-30T00:32:07.397Z,26.53
2018-03-30T00:34:34.932Z,24.77
2018-03-30T00:37:03.225Z,22.80
2018-03-30T00:39:30.769Z,23.63
2018-03-30T00:41:59.061Z,30.33
2018-03-30T00:44:26.601Z,27.00
2018-03-30T00:46:54.140Z,23.77
2018-03-30T00:49:21.708Z,22.80
2018-03-30T00:51:49.677Z,30.23
2018-03-30T00:54:17.987Z,32.97
2018-03-30T00:56:45.511Z,28.00
2018-03-30T00:59:13.821Z,29.50
2018-03-30T01:01:41.345Z,32.47
2018-03-30T01:04:08.894Z,32.57
2018-03-30T01:06:37.205Z,32.53
2018-03-30T01:09:04.755Z,27.03
2018-03-30T01:11:32.287Z,29.00
2018-03-30T01:14:00.598Z,29.80
2018-03-30T01:16:28.130Z,24.00
2018-03-30T01:18:56.462Z,26.53
2018-03-30T01:21:23.987Z,22.73
2018-03-30T01:23:52.283Z,27.13
2018-03-30T01:26:19.821Z,24.37
2018-03-30T01:28:47.341Z,26.57
2018-03-30T01:31:14.883Z,23.30
2018-03-30T01:33:42.405Z,22.93
2018-03-30T01:36:09.961Z,24.90
2018-03-30T01:38:37.519Z,19.97
2018-03-30T01:41:05.076Z,20.63
2018-03-30T01:43:32.609Z,21.43
2018-03-30T01:46:00.157Z,22.30
2018-03-30T01:48:28.470Z,25.00
2018-03-30T01:50:56.029Z,25.93
2018-03-30T01:53:23.570Z,23.87
2018-03-30T01:55:51.118Z,26.33
2018-03-30T01:58:18.655Z,25.70
2018-03-30T02:00:46.210Z,29.40
2018-03-30T02:03:14.514Z,26.23
2018-03-30T02:05:42.134Z,22.70
2018-03-30T02:08:09.689Z,25.30
2018-03-30T02:10:37.247Z,25.37
2018-03-30T02:13:04.782Z,23.50
2018-03-30T02:15:32.348Z,28.13
2018-03-30T02:17:59.940Z,27.97
2018-03-30T02:20:28.274Z,27.70
2018-03-30T02:22:55.809Z,28.23
2018-03-30T02:25:23.364Z,23.80
2018-03-30T02:27:51.675Z,26.23
2018-03-30T02:30:19.721Z,26.00
2018-03-30T02:32:47.310Z,23.10
2018-03-30T02:35:14.853Z,29.77
2018-03-30T02:37:42.416Z,30.97
2018-03-30T02:40:09.968Z,34.37
2018-03-30T02:42:37.519Z,24.43
2018-03-30T02:45:05.085Z,28.20
2018-03-30T02:47:32.618Z,28.60
2018-03-30T02:50:00.192Z,23.57
2018-03-30T02:52:27.738Z,26.87
2018-03-30T02:54:55.288Z,27.90
2018-03-30T02:57:22.815Z,26.17
2018-03-30T02:59:50.334Z,31.07
2018-03-30T03:02:17.882Z,26.13
2018-03-30T03:04:45.427Z,29.50
2018-03-30T03:07:12.987Z,30.03
2018-03-30T03:09:40.533Z,33.17
2018-03-30T03:12:08.841Z,36.83
2018-03-30T03:14:36.367Z,37.83
2018-03-30T03:17:03.930Z,30.07
2018-03-30T03:19:31.481Z,37.20
2018-03-30T03:21:59.021Z,34.87
2018-03-30T03:24:26.574Z,30.27
2018-03-30T03:26:54.121Z,24.80
2018-03-30T03:29:21.650Z,27.43
2018-03-30T03:31:49.187Z,26.90
2018-03-30T03:34:16.705Z,34.50
2018-03-30T03:36:44.286Z,33.13
2018-03-30T03:39:11.804Z,30.63
2018-03-30T03:41:40.114Z,33.90
2018-03-30T03:44:07.662Z,32.20
2018-03-30T03:46:35.196Z,28.17
2018-03-30T03:49:02.727Z,34.60
2018-03-30T03:51:30.283Z,31.77
2018-03-30T03:53:57.839Z,30.00
2018-03-30T03:56:25.396Z,29.20
2018-03-30T03:58:53.039Z,48.53
2018-03-30T04:01:20.590Z,51.37
2018-03-30T04:03:48.116Z,42.60
2018-03-30T04:06:15.653Z,50.80
2018-03-30T04:08:43.173Z,41.70
2018-03-30T04:11:10.704Z,42.17
2018-03-30T04:13:38.238Z,35.37
2018-03-30T04:16:06.548Z,31.07
2018-03-30T04:18:34.077Z,36.93
2018-03-30T04:21:01.613Z,37.60
2018-03-30T04:23:29.155Z,44.90
2018-03-30T04:25:56.735Z,38.90
2018-03-30T04:28:24.263Z,41.37
2018-03-30T04:30:51.800Z,42.27
2018-03-30T04:33:19.321Z,41.50
2018-03-30T04:35:47.646Z,32.90
2018-03-30T04:38:15.200Z,30.17
2018-03-30T04:40:42.723Z,35.70
2018-03-30T04:43:10.273Z,34.13
2018-03-30T04:45:37.801Z,30.53
2018-03-30T04:48:05.376Z,34.17
2018-03-30T04:50:32.909Z,32.27
2018-03-30T04:53:00.441Z,34.47
2018-03-30T04:55:27.978Z,31.77
2018-03-30T04:57:55.522Z,29.20
2018-03-30T05:00:23.049Z,28.80
2018-03-30T05:02:50.586Z,30.47
2018-03-30T05:05:18.112Z,32.33
2018-03-30T05:07:45.657Z,34.17
2018-03-30T05:10:13.182Z,35.13
2018-03-30T05:12:41.497Z,39.20
2018-03-30T05:15:09.785Z,36.90
2018-03-30T05:17:37.340Z,31.80
2018-03-30T05:20:04.862Z,29.97
2018-03-30T05:22:32.400Z,30.90
2018-03-30T05:24:59.912Z,32.83
2018-03-30T05:27:28.221Z,31.07
2018-03-30T05:29:55.772Z,35.77
2018-03-30T05:32:23.313Z,32.73
2018-03-30T05:34:50.837Z,36.07
2018-03-30T05:37:18.373Z,30.83
2018-03-30T05:39:46.690Z,31.73
2018-03-30T05:42:14.232Z,30.90
2018-03-30T05:44:41.754Z,32.83
2018-03-30T05:47:09.298Z,28.03
2018-03-30T05:49:36.833Z,30.07
2018-03-30T05:52:04.377Z,33.77
2018-03-30T05:54:31.910Z,33.67
2018-03-30T05:56:59.462Z,31.00
2018-03-30T05:59:26.990Z,25.90
2018-03-30T06:01:54.526Z,32.40
2018-03-30T06:04:22.045Z,30.33
2018-03-30T06:06:49.566Z,33.90
2018-03-30T06:09:17.872Z,27.37
2018-03-30T06:11:46.163Z,28.03
2018-03-30T06:14:13.710Z,28.77
2018-03-30T06:16:41.231Z,35.77
2018-03-30T06:19:08.788Z,35.23
2018-03-30T06:21:36.322Z,32.53
2018-03-30T06:24:03.910Z,29.50
2018-03-30T06:26:32.195Z,29.37
2018-03-30T06:29:00.512Z,29.93
2018-03-30T06:31:28.041Z,27.20
2018-03-30T06:33:55.573Z,28.50
2018-03-30T06:36:23.109Z,29.87
2018-03-30T06:38:50.649Z,27.07
2018-03-30T06:41:18.177Z,30.47
2018-03-30T06:43:45.716Z,30.93
2018-03-30T06:46:13.246Z,34.63
2018-03-30T06:48:40.781Z,51.20
2018-03-30T06:51:08.293Z,47.03
2018-03-30T06:53:36.623Z,46.83
2018-03-30T06:56:04.156Z,54.83
2018-03-30T06:58:31.703Z,39.60
2018-03-30T07:00:59.231Z,41.17
2018-03-30T07:03:27.549Z,30.27
2018-03-30T07:05:55.097Z,29.17
2018-03-30T07:08:22.647Z,27.67
2018-03-30T07:10:50.180Z,26.67
2018-03-30T07:13:17.739Z,29.57
2018-03-30T07:15:46.037Z,27.73
2018-03-30T07:18:13.585Z,30.67
2018-03-30T07:20:41.155Z,30.67
2018-03-30T07:23:08.713Z,31.53
2018-03-30T07:25:36.245Z,26.67
2018-03-30T07:28:04.790Z,28.73
2018-03-30T07:30:32.327Z,28.53
2018-03-30T07:32:59.878Z,29.93
2018-03-30T07:35:27.405Z,29.70
2018-03-30T07:37:54.958Z,32.57
2018-03-30T07:40:22.509Z,28.23
2018-03-30T07:42:50.845Z,31.57
2018-03-30T07:45:18.393Z,26.73
2018-03-30T07:47:45.929Z,27.63
2018-03-30T07:50:14.246Z,25.43
2018-03-30T07:52:41.795Z,22.77
2018-03-30T07:55:10.050Z,25.10
2018-03-30T07:57:37.585Z,21.60
2018-03-30T08:00:05.151Z,23.90
2018-03-30T08:02:32.683Z,23.70
2018-03-30T08:05:00.990Z,19.73
2018-03-30T08:07:28.530Z,21.80
2018-03-30T08:09:56.115Z,22.90
2018-03-30T08:12:23.657Z,25.33
2018-03-30T08:14:51.234Z,24.90
2018-03-30T08:17:18.763Z,23.70
2018-03-30T08:19:46.312Z,24.60
2018-03-30T08:22:13.849Z,26.40
2018-03-30T08:24:41.390Z,27.93
2018-03-30T08:27:08.911Z,28.73
2018-03-30T08:29:36.466Z,24.37
2018-03-30T08:32:03.998Z,27.57
2018-03-30T08:34:32.311Z,27.17
2018-03-30T08:36:59.840Z,27.80
2018-03-30T08:39:27.387Z,23.73
2018-03-30T08:41:54.962Z,24.93
2018-03-30T08:44:22.491Z,23.30
2018-03-30T08:46:50.785Z,23.77
2018-03-30T08:49:18.388Z,25.70
2018-03-30T08:51:45.881Z,24.87
2018-03-30T08:54:14.195Z,28.47
2018-03-30T08:56:41.721Z,24.20
2018-03-30T08:59:10.057Z,27.27
2018-03-30T09:01:37.587Z,25.90
2018-03-30T09:04:05.139Z,28.67
2018-03-30T09:06:32.674Z,30.23
2018-03-30T09:09:01.002Z,25.00
2018-03-30T09:11:28.538Z,22.87
2018-03-30T09:13:56.096Z,29.33
2018-03-30T09:16:23.631Z,28.47
2018-03-30T09:18:51.165Z,26.93
2018-03-30T09:21:18.703Z,27.40
2018-03-30T09:23:46.255Z,29.37
2018-03-30T09:26:13.786Z,27.10
2018-03-30T09:28:41.311Z,27.30
2018-03-30T09:31:09.771Z,26.33
2018-03-30T09:33:37.313Z,29.57
2018-03-30T09:36:04.878Z,25.87
2018-03-30T09:38:32.412Z,27.37
2018-03-30T09:40:59.957Z,29.87
2018-03-30T09:43:27.488Z,26.27
2018-03-30T09:45:55.034Z,29.77
2018-03-30T09:48:23.349Z,29.23
2018-03-30T09:50:50.894Z,30.67
2018-03-30T09:53:18.424Z,28.57
2018-03-30T09:55:46.746Z,29.83
2018-03-30T09:58:14.274Z,27.83
2018-03-30T10:00:43.717Z,31.87
2018-03-30T10:03:11.242Z,33.70
2018-03-30T10:05:38.785Z,28.33
2018-03-30T10:08:07.881Z,27.70
2018-03-30T10:10:35.430Z,31.40
2018-03-30T10:13:03.737Z,28.00
2018-03-30T10:15:32.055Z,28.43
2018-03-30T10:17:59.597Z,28.57
2018-03-30T10:20:27.144Z,31.43
2018-03-30T10:22:54.674Z,28.90
2018-03-30T10:25:22.232Z,30.43
2018-03-30T10:27:49.748Z,30.63
2018-03-30T10:30:17.311Z,27.33
2018-03-30T10:32:44.832Z,26.00
2018-03-30T10:35:12.390Z,27.77
2018-03-30T10:37:39.926Z,26.97
2018-03-30T10:40:07.482Z,27.77
2018-03-30T10:42:35.006Z,28.87
2018-03-30T10:45:02.557Z,28.30
2018-03-30T10:47:30.864Z,26.47
2018-03-30T10:49:58.401Z,26.00
2018-03-30T10:52:26.702Z,28.83
2018-03-30T10:54:54.253Z,25.27
2018-03-30T10:57:21.830Z,26.07
2018-03-30T10:59:49.346Z,27.53
2018-03-30T11:02:17.634Z,26.43
2018-03-30T11:04:45.178Z,26.43
2018-03-30T11:07:13.491Z,27.77
2018-03-30T11:09:41.014Z,25.20
2018-03-30T11:12:08.556Z,28.83
2018-03-30T11:14:36.069Z,24.77
2018-03-30T11:17:03.618Z,23.33
2018-03-30T11:19:31.148Z,26.40
2018-03-30T11:21:58.705Z,24.30
2018-03-30T11:24:26.989Z,23.17
2018-03-30T11:26:54.532Z,24.97
2018-03-30T11:29:22.826Z,24.57
2018-03-30T11:31:50.365Z,24.10
2018-03-30T11:34:18.677Z,21.73
2018-03-30T11:36:46.236Z,24.33
2018-03-30T11:39:13.761Z,24.53
2018-03-30T11:41:41.308Z,22.27
2018-03-30T11:44:08.834Z,23.67
2018-03-30T11:46:36.387Z,25.00
2018-03-30T11:49:03.926Z,24.50
2018-03-30T11:51:31.469Z,21.97
2018-03-30T11:53:59.002Z,21.03
2018-03-30T11:56:27.320Z,25.07
2018-03-30T11:58:54.878Z,22.60
2018-03-30T12:01:22.429Z,22.00
2018-03-30T12:03:49.957Z,21.23
2018-03-30T12:06:17.493Z,22.40
2018-03-30T12:08:45.022Z,24.27
2018-03-30T12:11:12.566Z,24.23
2018-03-30T12:13:40.091Z,23.13
2018-03-30T12:16:07.631Z,20.63
2018-03-30T12:18:35.926Z,21.17
2018-03-30T12:21:03.500Z,19.60
2018-03-30T12:23:31.034Z,22.27
2018-03-30T12:25:58.598Z,23.83
2018-03-30T12:28:26.131Z,22.97
2018-03-30T12:30:53.669Z,23.40
2018-03-30T12:33:21.197Z,20.63
2018-03-30T12:35:48.737Z,19.50
2018-03-30T12:38:16.267Z,19.17
2018-03-30T12:40:44.580Z,20.37
2018-03-30T12:43:12.103Z,20.93
2018-03-30T12:45:40.389Z,21.07
2018-03-30T12:48:07.925Z,19.50
2018-03-30T12:50:35.454Z,20.70
2018-03-30T12:53:03.005Z,18.93
2018-03-30T12:55:30.537Z,18.97
2018-03-30T12:57:58.119Z,18.17
2018-03-30T13:00:25.633Z,17.10
2018-03-30T13:02:53.182Z,20.13
2018-03-30T13:05:20.713Z,17.03
2018-03-30T13:07:48.249Z,19.23
2018-03-30T13:10:15.764Z,21.57
2018-03-30T13:12:43.316Z,19.27
2018-03-30T13:15:10.833Z,17.27
2018-03-30T13:17:38.369Z,20.90
2018-03-30T13:20:05.898Z,18.93
2018-03-30T13:22:33.446Z,18.73
2018-03-30T13:25:00.969Z,19.70
2018-03-30T13:27:28.515Z,20.10
2018-03-30T13:29:56.047Z,19.80
2018-03-30T13:32:23.592Z,19.37
2018-03-30T13:34:51.113Z,19.63
2018-03-30T13:37:18.659Z,18.60
2018-03-30T13:39:46.191Z,19.63
2018-03-30T13:42:13.728Z,17.37
2018-03-30T13:44:41.245Z,17.60
2018-03-30T13:47:08.784Z,19.23
2018-03-30T13:49:36.302Z,16.67
2018-03-30T13:52:08.263Z,14.83
2018-03-30T13:54:38.494Z,17.00
2018-03-30T13:57:09.521Z,18.27
2018-03-30T13:59:37.041Z,17.83
2018-03-30T14:02:10.970Z,16.33
2018-03-30T14:04:55.939Z,17.90
2018-03-30T14:07:30.021Z,17.37
2018-03-30T14:09:58.313Z,17.63
2018-03-30T14:12:28.686Z,17.60
2018-03-30T14:14:56.220Z,15.73
2018-03-30T14:17:29.354Z,18.93
2018-03-30T14:22:53.118Z,16.53
2018-03-30T14:25:27.169Z,16.33
2018-03-30T14:28:06.260Z,16.60
2018-03-30T14:30:34.691Z,16.33
2018-03-30T14:33:03.922Z,16.60
2018-03-30T14:35:54.855Z,15.40
2018-03-30T14:38:23.230Z,16.33
2018-03-30T14:40:52.567Z,15.10
2018-03-30T14:43:20.877Z,17.10
2018-03-30T14:46:07.890Z,16.60
2018-03-30T14:49:00.230Z,16.80
2018-03-30T14:51:39.242Z,18.33
2018-03-30T14:54:08.669Z,17.67
2018-03-30T14:57:00.968Z,18.50
2018-03-30T14:59:32.969Z,16.73
2018-03-30T15:02:19.325Z,17.30
2018-03-30T15:04:53.114Z,16.77
2018-03-30T15:07:26.081Z,16.47
2018-03-30T15:12:53.631Z,17.27
2018-03-30T15:15:25.702Z,13.90
2018-03-30T15:18:24.867Z,15.97
2018-03-30T15:21:08.925Z,14.27
2018-03-30T15:23:37.266Z,17.70
2018-03-30T15:26:07.170Z,18.00
2018-03-30T15:28:39.197Z,17.93
2018-03-30T15:31:34.136Z,16.47
2018-03-30T15:34:09.009Z,16.90
2018-03-30T15:39:31.457Z,14.90
2018-03-30T15:41:59.778Z,15.27
2018-03-30T15:44:27.326Z,14.43
2018-03-30T15:47:10.319Z,15.03
2018-03-30T15:49:40.509Z,14.80
2018-03-30T15:52:09.557Z,13.97
2018-03-30T15:54:37.112Z,14.93
2018-03-30T15:57:04.629Z,12.77
2018-03-30T15:59:32.155Z,13.47
2018-03-30T16:01:59.696Z,12.23
2018-03-30T16:04:27.219Z,14.43
2018-03-30T16:06:54.813Z,13.30
2018-03-30T16:09:23.963Z,13.20
2018-03-30T16:11:51.501Z,13.30
2018-03-30T16:14:19.857Z,12.23
2018-03-30T16:16:47.389Z,14.03
2018-03-30T16:19:14.421Z,11.97
2018-03-30T16:21:41.534Z,13.30
2018-03-30T16:24:08.622Z,14.97
2018-03-30T16:26:35.668Z,13.87
2018-03-30T16:29:02.704Z,15.63
2018-03-30T16:31:29.786Z,16.83
2018-03-30T16:33:56.817Z,15.93
2018-03-30T16:36:23.853Z,17.10
2018-03-30T16:38:50.943Z,15.63
2018-03-30T16:41:18.741Z,15.63
2018-03-30T16:43:45.797Z,19.40
2018-03-30T16:46:12.824Z,18.03
2018-03-30T16:48:39.876Z,18.77
2018-03-30T16:51:06.903Z,22.03
2018-03-30T16:53:33.950Z,20.23
2018-03-30T16:56:00.988Z,18.37
2018-03-30T16:58:28.801Z,18.27
2018-03-30T17:00:55.834Z,18.30
2018-03-30T17:03:22.895Z,19.03
2018-03-30T17:05:49.933Z,21.37
2018-03-30T17:08:16.974Z,19.83
2018-03-30T17:10:43.993Z,18.67
2018-03-30T17:13:11.037Z,19.80
2018-03-30T17:15:38.066Z,21.47
2018-03-30T17:18:05.873Z,20.87
2018-03-30T17:20:32.899Z,19.00
2018-03-30T17:22:59.951Z,20.53
2018-03-30T17:25:26.997Z,20.37
2018-03-30T17:27:54.821Z,20.20
2018-03-30T17:30:21.860Z,16.83
2018-03-30T17:32:48.902Z,18.40
2018-03-30T17:35:15.929Z,17.47
2018-03-30T17:37:42.986Z,18.30
2018-03-30T17:40:10.014Z,15.80
2018-03-30T17:42:37.062Z,16.90
2018-03-30T17:45:04.109Z,17.90
2018-03-30T17:47:31.190Z,19.30
2018-03-30T17:49:58.239Z,20.53
2018-03-30T17:52:26.051Z,19.43
2018-03-30T17:54:53.083Z,21.50
2018-03-30T17:57:20.140Z,22.17
2018-03-30T17:59:47.206Z,19.70
2018-03-30T18:02:14.255Z,18.83
2018-03-30T18:04:41.306Z,18.10
2018-03-30T18:07:08.351Z,19.77
2018-03-30T18:09:35.418Z,20.73
2018-03-30T18:12:02.455Z,22.13
2018-03-30T18:14:29.549Z,18.93
2018-03-30T18:16:56.609Z,19.97
2018-03-30T18:19:23.649Z,19.40
2018-03-30T18:21:50.695Z,16.33
2018-03-30T18:24:17.749Z,16.90
2018-03-30T18:26:44.782Z,18.33
2018-03-30T18:29:11.858Z,17.17
2018-03-30T18:31:38.910Z,17.37
2018-03-30T18:34:05.967Z,18.33
2018-03-30T18:36:33.007Z,19.60
2018-03-30T18:39:00.494Z,17.07
2018-03-30T18:41:27.525Z,16.03
2018-03-30T18:43:54.569Z,17.30
2018-03-30T18:46:21.602Z,16.00
2018-03-30T18:48:48.648Z,16.53
2018-03-30T18:51:15.690Z,14.97
2018-03-30T18:53:42.758Z,16.03
2018-03-30T18:56:09.793Z,13.90
2018-03-30T18:58:36.847Z,15.70
2018-03-30T19:01:03.880Z,12.70
2018-03-30T19:03:30.927Z,14.10
2018-03-30T19:05:57.959Z,13.53
2018-03-30T19:08:25.826Z,12.63
2018-03-30T19:10:52.858Z,14.23
2018-03-30T19:13:19.921Z,13.40
2018-03-30T19:15:46.945Z,14.33
2018-03-30T19:18:13.966Z,13.70
2018-03-30T19:20:41.031Z,13.00
2018-03-30T19:23:08.063Z,14.47
2018-03-30T19:25:35.191Z,17.67
2018-03-30T19:28:02.989Z,14.20
2018-03-30T19:30:30.035Z,12.07
2018-03-30T19:32:57.068Z,12.97
2018-03-30T19:35:24.120Z,13.87
2018-03-30T19:37:51.149Z,13.67
2018-03-30T19:40:18.192Z,13.23
2018-03-30T19:42:45.295Z,10.60
2018-03-30T19:45:12.360Z,11.40
2018-03-30T19:47:39.389Z,12.50
2018-03-30T19:50:06.442Z,12.87
2018-03-30T19:52:33.484Z,11.53
2018-03-30T19:55:00.531Z,13.43
2018-03-30T19:57:27.562Z,12.40
2018-03-30T19:59:54.610Z,10.50
2018-03-30T20:02:21.659Z,12.77
2018-03-30T20:04:48.713Z,12.70
2018-03-30T20:07:15.740Z,11.87
2018-03-30T20:09:42.846Z,11.27
2018-03-30T20:12:09.845Z,12.70
2018-03-30T20:14:36.894Z,12.37
2018-03-30T20:17:03.919Z,10.87
2018-03-30T20:19:30.960Z,12.33
2018-03-30T20:21:57.988Z,13.43
2018-03-30T20:24:25.035Z,14.97
2018-03-30T20:26:52.067Z,14.20
2018-03-30T20:29:19.131Z,11.53
2018-03-30T20:31:46.175Z,13.73
2018-03-30T20:34:13.223Z,14.40
2018-03-30T20:36:40.266Z,11.97
2018-03-30T20:39:07.306Z,12.87
2018-03-30T20:41:34.347Z,15.77
2018-03-30T20:44:01.385Z,12.63
2018-03-30T20:46:28.424Z,13.17
2018-03-30T20:48:55.459Z,12.17
2018-03-30T20:51:23.279Z,16.90
2018-03-30T20:53:51.095Z,16.00
2018-03-30T20:56:18.905Z,12.00
2018-03-30T20:58:45.931Z,13.87
2018-03-30T21:01:12.968Z,13.57
2018-03-30T21:03:39.998Z,15.50
2018-03-30T21:06:07.812Z,13.80
2018-03-30T21:08:34.902Z,12.00
2018-03-30T21:11:01.922Z,13.80
2018-03-30T21:13:28.945Z,12.17
2018-03-30T21:15:55.998Z,13.73
2018-03-30T21:18:23.030Z,13.83
2018-03-30T21:20:50.085Z,15.87
2018-03-30T21:23:17.122Z,15.43
2018-03-30T21:25:44.181Z,13.07
2018-03-30T21:28:11.217Z,14.33
2018-03-30T21:30:38.262Z,14.13
2018-03-30T21:33:05.294Z,14.83
2018-03-30T21:35:32.407Z,15.23
2018-03-30T21:37:59.478Z,15.47
2018-03-30T21:40:26.542Z,13.83
2018-03-30T21:42:53.572Z,17.90
2018-03-30T21:45:20.628Z,13.33
2018-03-30T21:47:47.683Z,17.73
2018-03-30T21:50:14.731Z,14.47
2018-03-30T21:52:41.778Z,16.67
2018-03-30T21:55:08.821Z,15.33
2018-03-30T21:57:35.858Z,14.83
2018-03-30T22:00:02.915Z,16.30
2018-03-30T22:02:29.954Z,14.77
2018-03-30T22:04:57.005Z,14.37
2018-03-30T22:07:24.041Z,15.00
2018-03-30T22:09:51.098Z,15.43
2018-03-30T22:12:18.148Z,15.57
2018-03-30T22:14:45.182Z,14.43
2018-03-30T22:17:12.221Z,15.00
2018-03-30T22:19:39.242Z,15.53
2018-03-30T22:22:06.313Z,13.03
2018-03-30T22:24:33.357Z,16.73
2018-03-30T22:27:00.437Z,15.60
2018-03-30T22:29:27.468Z,16.30
2018-03-30T22:31:54.521Z,15.30
2018-03-30T22:34:21.556Z,19.73
2018-03-30T22:36:48.618Z,15.20
2018-03-30T22:39:15.658Z,14.70
2018-03-30T22:41:42.705Z,14.70
2018-03-30T22:44:09.741Z,15.23
2018-03-30T22:46:36.790Z,17.47
2018-03-30T22:49:03.878Z,16.50
2018-03-30T22:51:31.699Z,17.73
2018-03-30T22:53:58.729Z,16.20
2018-03-30T22:56:25.778Z,15.53
2018-03-30T22:58:52.802Z,19.07
2018-03-30T23:01:19.853Z,14.83
2018-03-30T23:03:46.877Z,16.43
2018-03-30T23:06:13.952Z,16.17
2018-03-30T23:08:40.968Z,15.20
2018-03-30T23:11:08.042Z,18.10
2018-03-30T23:13:35.074Z,19.53
2018-03-30T23:16:02.124Z,18.43
2018-03-30T23:18:29.159Z,18.30
2018-03-30T23:20:56.207Z,16.80
2018-03-30T23:23:23.233Z,19.20
2018-03-30T23:25:50.285Z,17.13
2018-03-30T23:28:18.131Z,17.13
2018-03-30T23:30:45.958Z,18.40
2018-03-30T23:33:12.990Z,17.97
2018-03-30T23:35:40.022Z,18.07
2018-03-30T23:38:07.064Z,19.03
2018-03-30T23:40:34.089Z,19.47
2018-03-30T23:43:01.910Z,16.40
2018-03-30T23:45:28.954Z,16.70
2018-03-30T23:47:56.013Z,18.23
2018-03-30T23:50:23.050Z,19.27
2018-03-30T23:52:50.094Z,17.23
2018-03-30T23:55:17.120Z,17.07
2018-03-30T23:57:44.165Z,17.50
